Página principal
METAR-TAF:

METAR-TAF

Aeroportos :

Aeroporto Internacional de Noi Bai

Hanói, Vietname

latitude: 21-01N, longitude: 105-48E, altura: 6 m

Observação actual do tempo

O boletim foi feito há 22 minutos, às 01:00 UTC
Vento 3 kt de nor-noroeste, variando entre noroeste e norte
Temperatura 28°C
Humidade 94%
Pressão 1013 hPa
Visibilidade: 9000 m
Poucas nuvensa uma altura de 3000 ft

METAR: VVNB 200100Z 33003KT 310V010 9000 FEW030 28/27 Q1013 NOSIG

Hora: 08:22 (01:22 UTC)

Previsão

O boletim foi feito há 2 horas e 22 minutos, às 23:00 UTC
Previsão válida de 20 às 00 UTC a 20 às 24 UTC
Vento 2 kt com direcção variável
Visibilidade: 6000 m
Nuvens dispersasa uma altura de 1700 ft

TAF: VVNB 192300Z 2000/2024 VRB02KT 6000 SCT017

Observações e previsões do tempo de mais de 4000 aeroportos (mensagens METAR e TAF).

As estações disponíveis são os pontos amarelos e vermelhos sobre o mapa.

Mova o rato sobre o mapa para ver o nome da estação.

Depois clique no ponto para visualizar as observações e previsões meteorológicas.

Para alterar o mapa : clique nos botões verdes com uma cruz preta para aumentar o zoom; no botão verde com uma pitada de zoom; ou nas setas verdes para mapas adjacentes.


METAR-TAF: